createdAt,value
2023-04-18T00:00:28.501Z,99775.78
2023-04-18T00:02:34.247Z,99776.63
2023-04-18T00:04:37.439Z,99777.66
2023-04-18T00:06:40.698Z,99772.72
2023-04-18T00:08:43.722Z,99775.19
2023-04-18T00:10:46.941Z,99770.66
2023-04-18T00:12:49.836Z,99776.84
2023-04-18T00:14:52.691Z,99777.03
2023-04-18T00:16:56.201Z,99778.91
2023-04-18T00:19:02.596Z,99771.47
2023-04-18T00:21:06.221Z,99771.47
2023-04-18T00:23:09.922Z,99778.50
2023-04-18T00:25:14.117Z,99769.81
2023-04-18T00:27:17.092Z,99776.00
2023-04-18T00:29:20.056Z,99775.59
2023-04-18T00:31:23.371Z,99777.03
2023-04-18T00:33:26.936Z,99775.59
2023-04-18T00:35:32.312Z,99773.53
2023-04-18T00:37:35.622Z,99782.81
2023-04-18T00:39:38.457Z,99773.94
2023-04-18T00:41:41.448Z,99776.84
2023-04-18T00:43:44.782Z,99769.63
2023-04-18T00:45:47.724Z,99777.44
2023-04-18T00:47:50.694Z,99767.75
2023-04-18T00:49:54.032Z,99768.16
2023-04-18T00:51:59.602Z,99768.97
2023-04-18T00:54:04.017Z,99771.88
2023-04-18T00:56:07.932Z,99763.84
2023-04-18T00:58:11.051Z,99767.97
2023-04-18T01:00:15.436Z,99767.13
2023-04-18T01:02:18.344Z,99765.69
2023-04-18T01:04:21.448Z,99765.91
2023-04-18T01:06:24.841Z,99768.97
2023-04-18T01:08:29.314Z,99769.19
2023-04-18T01:10:34.441Z,99761.16
2023-04-18T01:12:38.012Z,99764.03
2023-04-18T01:14:43.139Z,99769.59
2023-04-18T01:16:47.673Z,99768.56
2023-04-18T01:18:50.633Z,99761.53
2023-04-18T01:20:57.287Z,99763.63
2023-04-18T01:23:00.562Z,99766.31
2023-04-18T01:25:09.852Z,99764.66
2023-04-18T01:27:13.879Z,99766.31
2023-04-18T01:29:16.788Z,99773.09
2023-04-18T01:31:19.969Z,99772.06
2023-04-18T01:33:23.251Z,99763.00
2023-04-18T01:35:26.272Z,99764.66
2023-04-18T01:37:32.901Z,99770.22
2023-04-18T01:39:36.652Z,99767.34
2023-04-18T01:41:42.550Z,99763.63
2023-04-18T01:43:46.472Z,99759.09
2023-04-18T01:45:49.282Z,99763.63
2023-04-18T01:47:52.256Z,99768.38
2023-04-18T01:49:55.733Z,99765.47
2023-04-18T01:51:58.668Z,99762.59
2023-04-18T01:54:01.569Z,99764.88
2023-04-18T01:56:05.281Z,99760.75
2023-04-18T01:58:09.612Z,99754.75
2023-04-18T02:00:13.921Z,99754.53
2023-04-18T02:02:19.632Z,99754.13
2023-04-18T02:04:22.783Z,99758.06
2023-04-18T02:06:26.415Z,99748.13
2023-04-18T02:08:31.130Z,99753.91
2023-04-18T02:10:34.050Z,99749.16
2023-04-18T02:12:36.963Z,99749.16
2023-04-18T02:14:41.403Z,99748.16
2023-04-18T02:16:44.416Z,99746.31
2023-04-18T02:18:47.913Z,99739.28
2023-04-18T02:20:51.876Z,99743.41
2023-04-18T02:22:55.053Z,99740.50
2023-04-18T02:24:58.026Z,99747.53
2023-04-18T02:27:01.187Z,99742.38
2023-04-18T02:29:04.424Z,99738.25
2023-04-18T02:31:14.914Z,99743.19
2023-04-18T02:33:17.924Z,99741.97
2023-04-18T02:35:21.585Z,99741.53
2023-04-18T02:37:24.864Z,99741.75
2023-04-18T02:39:27.764Z,99735.56
2023-04-18T02:41:31.564Z,99745.88
2023-04-18T02:43:35.197Z,99742.78
2023-04-18T02:45:39.457Z,99745.44
2023-04-18T02:47:54.453Z,99741.13
2023-04-18T02:49:58.794Z,99748.94
2023-04-18T02:52:03.153Z,99755.97
2023-04-18T02:54:06.251Z,99752.47
2023-04-18T02:56:24.026Z,99750.19
2023-04-18T02:58:59.076Z,99756.59
2023-04-18T03:01:21.379Z,99758.66
2023-04-18T03:03:33.985Z,99759.06
2023-04-18T03:06:15.283Z,99758.47
2023-04-18T03:08:18.551Z,99766.69
2023-04-18T03:10:21.653Z,99762.38
2023-04-18T03:12:25.993Z,99766.50
2023-04-18T03:14:29.636Z,99760.53
2023-04-18T03:16:32.650Z,99761.16
2023-04-18T03:18:37.750Z,99758.66
2023-04-18T03:20:41.473Z,99755.16
2023-04-18T03:22:44.721Z,99751.66
2023-04-18T03:24:48.671Z,99759.47
2023-04-18T03:26:53.231Z,99760.91
2023-04-18T03:28:59.981Z,99755.38
2023-04-18T03:31:03.686Z,99745.25
2023-04-18T03:33:09.410Z,99746.69
2023-04-18T03:35:13.761Z,99740.72
2023-04-18T03:37:17.314Z,99763.81
2023-04-18T03:39:26.150Z,99766.72
2023-04-18T03:41:30.300Z,99777.22
2023-04-18T03:43:33.970Z,99774.31
2023-04-18T03:45:37.342Z,99778.69
2023-04-18T03:47:41.305Z,99774.72
2023-04-18T03:49:44.309Z,99776.00
2023-04-18T03:51:49.241Z,99775.34
2023-04-18T03:53:52.332Z,99775.56
2023-04-18T03:55:55.362Z,99776.63
2023-04-18T03:58:02.512Z,99774.56
2023-04-18T04:00:08.457Z,99773.72
2023-04-18T04:02:18.641Z,99774.34
2023-04-18T04:04:22.043Z,99782.59
2023-04-18T04:06:26.721Z,99787.13
2023-04-18T04:08:31.936Z,99795.19
2023-04-18T04:10:34.970Z,99802.00
2023-04-18T04:12:37.859Z,99799.09
2023-04-18T04:14:40.967Z,99804.47
2023-04-18T04:16:46.149Z,99806.09
2023-04-18T04:18:52.170Z,99804.25
2023-04-18T04:21:00.470Z,99802.81
2023-04-18T04:23:15.906Z,99803.25
2023-04-18T04:25:24.637Z,99810.88
2023-04-18T04:27:29.512Z,99804.28
2023-04-18T04:29:33.052Z,99809.81
2023-04-18T04:31:36.239Z,99814.16
2023-04-18T04:33:39.292Z,99817.47
2023-04-18T04:35:48.594Z,99819.13
2023-04-18T04:37:52.062Z,99816.84
2023-04-18T04:40:01.524Z,99819.31
2023-04-18T04:42:26.131Z,99822.00
2023-04-18T04:44:37.778Z,99823.47
2023-04-18T04:46:41.842Z,99828.59
2023-04-18T04:48:50.762Z,99829.22
2023-04-18T04:50:56.681Z,99828.00
2023-04-18T04:53:00.056Z,99830.47
2023-04-18T04:55:03.232Z,99837.47
2023-04-18T04:57:06.310Z,99829.22
2023-04-18T04:59:11.442Z,99833.38
2023-04-18T05:01:20.336Z,99834.38
2023-04-18T05:03:23.559Z,99836.69
2023-04-18T05:05:26.935Z,99840.59
2023-04-18T05:07:29.929Z,99839.97
2023-04-18T05:09:32.774Z,99843.91
2023-04-18T05:11:35.853Z,99849.47
2023-04-18T05:13:38.778Z,99840.59
2023-04-18T05:15:44.477Z,99849.06
2023-04-18T05:17:47.500Z,99844.34
2023-04-18T05:19:50.562Z,99845.34
2023-04-18T05:21:53.461Z,99851.97
2023-04-18T05:23:56.594Z,99843.09
2023-04-18T05:25:59.959Z,99846.56
2023-04-18T05:28:04.968Z,99846.38
2023-04-18T05:30:08.888Z,99857.94
2023-04-18T05:32:13.426Z,99868.06
2023-04-18T05:34:16.645Z,99861.03
2023-04-18T05:36:19.701Z,99864.31
2023-04-18T05:38:22.595Z,99868.06
2023-04-18T05:40:25.958Z,99863.69
2023-04-18T05:42:28.964Z,99865.38
2023-04-18T05:44:31.908Z,99873.63
2023-04-18T05:46:35.108Z,99863.50
2023-04-18T05:48:39.598Z,99869.94
2023-04-18T05:50:42.468Z,99865.78
2023-04-18T05:52:45.544Z,99868.47
2023-04-18T05:54:48.444Z,99862.69
2023-04-18T05:56:51.755Z,99873.41
2023-04-18T05:58:54.672Z,99870.94
2023-04-18T06:00:57.660Z,99866.19
2023-04-18T06:03:00.933Z,99873.44
2023-04-18T06:05:06.985Z,99865.38
2023-04-18T06:07:10.355Z,99874.22
2023-04-18T06:09:13.277Z,99876.50
2023-04-18T06:11:16.312Z,99884.56
2023-04-18T06:13:19.356Z,99884.56
2023-04-18T06:15:22.183Z,99886.63
2023-04-18T06:17:25.234Z,99884.13
2023-04-18T06:19:28.302Z,99879.78
2023-04-18T06:21:32.747Z,99888.88
2023-04-18T06:23:35.642Z,99889.88
2023-04-18T06:25:38.767Z,99889.88
2023-04-18T06:27:41.635Z,99887.59
2023-04-18T06:29:44.612Z,99896.03
2023-04-18T06:31:48.700Z,99899.78
2023-04-18T06:33:51.886Z,99906.78
2023-04-18T06:35:54.823Z,99908.25
2023-04-18T06:37:59.287Z,99905.78
2023-04-18T06:40:02.333Z,99909.66
2023-04-18T06:42:05.283Z,99905.56
2023-04-18T06:44:08.142Z,99916.09
2023-04-18T06:46:11.265Z,99916.09
2023-04-18T06:48:14.253Z,99915.53
2023-04-18T06:50:17.290Z,99909.31
2023-04-18T06:52:20.303Z,99911.38
2023-04-18T06:54:24.984Z,99919.44
2023-04-18T06:56:27.896Z,99916.53
2023-04-18T06:58:31.027Z,99919.22
2023-04-18T07:00:33.943Z,99921.06
2023-04-18T07:02:38.248Z,99924.78
2023-04-18T07:04:41.758Z,99919.78
2023-04-18T07:06:45.143Z,99923.91
2023-04-18T07:08:48.052Z,99928.25
2023-04-18T07:10:52.686Z,99924.44
2023-04-18T07:12:55.787Z,99925.44
2023-04-18T07:14:58.757Z,99934.56
2023-04-18T07:17:02.079Z,99933.75
2023-04-18T07:19:05.761Z,99931.66
2023-04-18T07:21:08.654Z,99942.94
2023-04-18T07:23:12.197Z,99934.19
2023-04-18T07:25:15.638Z,99940.66
2023-04-18T07:27:20.281Z,99940.50
2023-04-18T07:29:23.192Z,99942.47
2023-04-18T07:31:28.841Z,99934.06
2023-04-18T07:33:34.092Z,99932.25
2023-04-18T07:35:37.410Z,99942.47
2023-04-18T07:37:40.437Z,99936.28
2023-04-18T07:39:43.412Z,99933.69
2023-04-18T07:41:46.459Z,99940.75
2023-04-18T07:43:50.939Z,99940.75
2023-04-18T07:45:54.523Z,99936.53
2023-04-18T07:47:57.494Z,99932.28
2023-04-18T07:50:00.399Z,99931.00
2023-04-18T07:52:03.726Z,99930.75
2023-04-18T07:54:06.724Z,99935.13
2023-04-18T07:56:09.933Z,99938.72
2023-04-18T07:58:12.871Z,99943.03
2023-04-18T08:00:18.347Z,99960.06
2023-04-18T08:02:21.926Z,99945.91
2023-04-18T08:04:27.628Z,99945.75
2023-04-18T08:06:32.124Z,99941.13
2023-04-18T08:08:35.132Z,99947.34
2023-04-18T08:10:38.204Z,99951.47
2023-04-18T08:12:41.380Z,99943.91
2023-04-18T08:14:44.309Z,99950.28
2023-04-18T08:16:50.937Z,99952.31
2023-04-18T08:18:54.034Z,99938.47
2023-04-18T08:20:57.056Z,99946.34
2023-04-18T08:23:06.243Z,99942.16
2023-04-18T08:25:11.868Z,99955.41
2023-04-18T08:27:14.836Z,99951.56
2023-04-18T08:29:17.856Z,99953.00
2023-04-18T08:31:21.026Z,99956.66
2023-04-18T08:33:25.558Z,99958.75
2023-04-18T08:35:28.582Z,99955.44
2023-04-18T08:37:32.006Z,99958.78
2023-04-18T08:39:35.732Z,99969.63
2023-04-18T08:41:40.187Z,99954.94
2023-04-18T08:43:48.395Z,99959.56
2023-04-18T08:45:53.164Z,99964.03
2023-04-18T08:47:58.147Z,99964.06
2023-04-18T08:50:02.871Z,99960.47
2023-04-18T08:52:11.663Z,99965.59
2023-04-18T08:54:15.620Z,99955.34
2023-04-18T08:56:22.711Z,99960.63
2023-04-18T08:58:27.806Z,99964.97
2023-04-18T09:00:30.807Z,99963.09
2023-04-18T09:02:43.131Z,99959.34
2023-04-18T09:04:49.475Z,99964.06
2023-04-18T09:06:54.009Z,99962.63
2023-04-18T09:08:59.295Z,99960.97
2023-04-18T09:11:26.329Z,99955.75
2023-04-18T09:13:47.770Z,99963.63
2023-04-18T09:15:56.600Z,99959.50
2023-04-18T09:18:00.815Z,99966.50
2023-04-18T09:20:10.554Z,99966.97
2023-04-18T09:22:16.365Z,99966.94
2023-04-18T09:24:24.482Z,99964.75
2023-04-18T09:26:36.189Z,99960.47
2023-04-18T09:28:40.923Z,99960.91
2023-04-18T09:30:44.229Z,99958.00
2023-04-18T09:32:59.084Z,99960.56
2023-04-18T09:35:05.732Z,99968.25
2023-04-18T09:37:10.293Z,99964.84
2023-04-18T09:39:28.373Z,99969.34
2023-04-18T09:41:33.040Z,99968.59
2023-04-18T09:43:35.928Z,99966.41
2023-04-18T09:45:39.688Z,99966.66
2023-04-18T09:47:44.132Z,99971.75
2023-04-18T09:49:47.095Z,99975.34
2023-04-18T09:51:52.025Z,99969.81
2023-04-18T09:53:55.274Z,99961.16
2023-04-18T09:56:00.284Z,99962.78
2023-04-18T09:58:04.545Z,99962.53
2023-04-18T10:00:24.518Z,99957.75
2023-04-18T10:02:35.154Z,99953.19
2023-04-18T10:04:38.337Z,99958.75
2023-04-18T10:06:43.323Z,99960.00
2023-04-18T10:08:48.332Z,99964.19
2023-04-18T10:10:51.340Z,99955.59
2023-04-18T10:12:58.002Z,99957.69
2023-04-18T10:15:01.762Z,99964.81
2023-04-18T10:17:04.834Z,99957.78
2023-04-18T10:19:25.085Z,99956.28
2023-04-18T10:21:29.540Z,99959.06
2023-04-18T10:23:37.129Z,99939.91
2023-04-18T10:25:50.393Z,99959.66
2023-04-18T10:27:59.194Z,99949.81
2023-04-18T10:30:02.418Z,99951.44
2023-04-18T10:32:07.503Z,99943.81
2023-04-18T10:34:17.793Z,99941.94
2023-04-18T10:36:21.803Z,99938.78
2023-04-18T10:38:24.772Z,99945.31
2023-04-18T10:40:33.648Z,99937.94
2023-04-18T10:42:59.750Z,99943.47
2023-04-18T10:45:18.977Z,99943.03
2023-04-18T10:47:22.776Z,99931.00
2023-04-18T10:49:28.942Z,99927.53
2023-04-18T10:51:33.263Z,99937.22
2023-04-18T10:53:36.285Z,99926.94
2023-04-18T10:55:46.485Z,99925.69
2023-04-18T10:57:50.959Z,99929.25
2023-04-18T10:59:55.915Z,99927.81
2023-04-18T11:02:05.628Z,99928.34
2023-04-18T11:04:14.131Z,99924.56
2023-04-18T11:06:17.372Z,99923.22
2023-04-18T11:08:24.528Z,99915.31
2023-04-18T11:10:28.185Z,99909.84
2023-04-18T11:12:36.242Z,99908.28
2023-04-18T11:14:43.456Z,99908.91
2023-04-18T11:16:47.916Z,99910.84
2023-04-18T11:18:51.467Z,99904.91
2023-04-18T11:20:54.362Z,99912.16
2023-04-18T11:22:58.618Z,99912.38
2023-04-18T11:25:07.496Z,99906.81
2023-04-18T11:27:11.422Z,99915.00
2023-04-18T11:29:14.390Z,99913.16
2023-04-18T11:31:17.447Z,99910.97
2023-04-18T11:33:22.145Z,99917.94
2023-04-18T11:35:25.214Z,99908.88
2023-04-18T11:37:28.145Z,99907.38
2023-04-18T11:39:34.915Z,99913.78
2023-04-18T11:41:37.933Z,99912.31
2023-04-18T11:43:43.506Z,99906.31
2023-04-18T11:45:52.388Z,99912.94
2023-04-18T11:47:58.472Z,99902.16
2023-04-18T11:50:04.377Z,99906.06
2023-04-18T11:52:13.780Z,99907.00
2023-04-18T11:54:40.902Z,99904.16
2023-04-18T11:56:48.794Z,99895.41
2023-04-18T11:58:51.998Z,99904.00
2023-04-18T12:00:55.015Z,99900.97
2023-04-18T12:02:59.728Z,99903.22
2023-04-18T12:05:05.288Z,99904.56
2023-04-18T12:07:08.023Z,99902.03
2023-04-18T12:09:14.225Z,99895.16
2023-04-18T12:11:21.889Z,99886.53
2023-04-18T12:13:26.895Z,99888.44
2023-04-18T12:15:30.514Z,99892.13
2023-04-18T12:17:33.790Z,99884.84
2023-04-18T12:19:36.733Z,99885.22
2023-04-18T12:21:57.414Z,99886.50
2023-04-18T12:24:00.963Z,99884.94
2023-04-18T12:26:05.975Z,99878.00
2023-04-18T12:28:15.415Z,99882.41
2023-04-18T12:30:22.921Z,99884.56
2023-04-18T12:32:25.850Z,99881.16
2023-04-18T12:34:29.023Z,99884.03
2023-04-18T12:36:31.980Z,99883.97
2023-04-18T12:38:36.412Z,99886.41
2023-04-18T12:40:41.062Z,99875.13
2023-04-18T12:42:44.134Z,99882.34
2023-04-18T12:44:47.997Z,99881.28
2023-04-18T12:46:51.641Z,99876.72
2023-04-18T12:48:54.636Z,99874.34
2023-04-18T12:50:57.628Z,99867.31
2023-04-18T12:53:02.239Z,99875.75
2023-04-18T12:55:08.671Z,99876.22
2023-04-18T12:57:11.528Z,99867.81
2023-04-18T12:59:14.765Z,99873.50
2023-04-18T13:01:18.433Z,99872.84
2023-04-18T13:03:21.716Z,99874.94
2023-04-18T13:05:28.084Z,99864.16
2023-04-18T13:07:33.262Z,99874.16
2023-04-18T13:09:36.797Z,99869.91
2023-04-18T13:11:41.298Z,99872.84
2023-04-18T13:13:44.263Z,99862.66
2023-04-18T13:15:47.114Z,99867.66
2023-04-18T13:17:51.048Z,99872.72
2023-04-18T13:19:54.142Z,99870.84
2023-04-18T13:21:57.087Z,99865.16
2023-04-18T13:24:01.368Z,99864.94
2023-04-18T13:26:04.276Z,99867.31
2023-04-18T13:28:08.685Z,99876.63
2023-04-18T13:30:12.423Z,99865.00
2023-04-18T13:32:15.554Z,99859.31
2023-04-18T13:34:18.447Z,99865.03
2023-04-18T13:36:21.881Z,99864.13
2023-04-18T13:38:25.243Z,99865.66
2023-04-18T13:40:28.238Z,99858.16
2023-04-18T13:42:31.273Z,99860.72
2023-04-18T13:44:37.097Z,99862.44
2023-04-18T13:46:39.683Z,99860.72
2023-04-18T13:48:42.659Z,99861.53
2023-04-18T13:50:45.567Z,99864.09
2023-04-18T13:52:49.572Z,99860.00
2023-04-18T13:54:52.636Z,99861.81
2023-04-18T13:56:58.328Z,99860.19
2023-04-18T13:59:00.892Z,99868.13
2023-04-18T14:01:05.597Z,99856.41
2023-04-18T14:03:08.604Z,99867.44
2023-04-18T14:05:11.877Z,99863.94
2023-04-18T14:07:14.901Z,99865.00
2023-04-18T14:09:18.315Z,99855.78
2023-04-18T14:11:21.502Z,99859.94
2023-04-18T14:13:24.552Z,99865.47
2023-04-18T14:15:27.462Z,99860.44
2023-04-18T14:17:31.951Z,99870.28
2023-04-18T14:19:35.222Z,99864.44
2023-04-18T14:21:38.293Z,99862.41
2023-04-18T14:23:41.184Z,99862.00
2023-04-18T14:25:44.400Z,99868.44
2023-04-18T14:27:48.430Z,99859.44
2023-04-18T14:29:51.633Z,99866.19
2023-04-18T14:31:54.938Z,99862.59
2023-04-18T14:33:59.356Z,99860.78
2023-04-18T14:36:02.773Z,99860.97
2023-04-18T14:38:05.904Z,99856.75
2023-04-18T14:40:10.183Z,99851.63
2023-04-18T14:42:13.042Z,99863.59
2023-04-18T14:44:15.873Z,99859.69
2023-04-18T14:46:19.184Z,99866.22
2023-04-18T14:48:22.171Z,99872.81
2023-04-18T14:50:27.031Z,99868.59
2023-04-18T14:52:29.872Z,99871.09
2023-04-18T14:54:32.954Z,99861.56
2023-04-18T14:56:35.905Z,99856.88
2023-04-18T14:58:38.782Z,99858.13
2023-04-18T15:00:42.163Z,99864.88
2023-04-18T15:02:45.393Z,99860.13
2023-04-18T15:04:48.726Z,99862.09
2023-04-18T15:06:53.209Z,99856.78
2023-04-18T15:08:57.049Z,99856.16
2023-04-18T15:11:00.362Z,99859.63
2023-04-18T15:13:03.317Z,99861.69
2023-04-18T15:15:07.181Z,99864.13
2023-04-18T15:17:10.268Z,99860.69
2023-04-18T15:19:13.778Z,99869.97
2023-04-18T15:21:16.651Z,99859.63
2023-04-18T15:23:21.900Z,99868.38
2023-04-18T15:25:26.450Z,99857.94
2023-04-18T15:27:29.383Z,99866.38
2023-04-18T15:29:32.344Z,99857.63
2023-04-18T15:31:36.709Z,99864.59
2023-04-18T15:33:41.874Z,99863.03
2023-04-18T15:35:44.935Z,99862.25
2023-04-18T15:37:47.935Z,99864.09
2023-04-18T15:39:52.539Z,99861.91
2023-04-18T15:41:55.677Z,99861.56
2023-04-18T15:43:58.660Z,99859.59
2023-04-18T15:46:01.641Z,99867.19
2023-04-18T15:48:04.798Z,99863.78
2023-04-18T15:50:09.531Z,99874.41
2023-04-18T15:52:14.020Z,99867.06
2023-04-18T15:54:17.143Z,99871.31
2023-04-18T15:56:21.908Z,99870.16
2023-04-18T15:58:28.040Z,99876.66
2023-04-18T16:00:31.204Z,99869.59
2023-04-18T16:02:34.202Z,99878.22
2023-04-18T16:04:37.315Z,99877.94
2023-04-18T16:06:40.899Z,99881.94
2023-04-18T16:08:44.060Z,99877.19
2023-04-18T16:10:48.389Z,99874.72
2023-04-18T16:12:53.916Z,99878.91
2023-04-18T16:14:56.799Z,99881.63
2023-04-18T16:17:00.165Z,99884.91
2023-04-18T16:19:04.458Z,99888.84
2023-04-18T16:21:07.328Z,99881.44
2023-04-18T16:23:10.168Z,99889.41
2023-04-18T16:25:13.270Z,99886.41
2023-04-18T16:27:16.548Z,99891.69
2023-04-18T16:29:21.460Z,99888.50
2023-04-18T16:31:24.613Z,99892.72
2023-04-18T16:33:27.703Z,99899.09
2023-04-18T16:35:30.745Z,99900.63
2023-04-18T16:37:33.853Z,99894.25
2023-04-18T16:39:37.023Z,99900.72
2023-04-18T16:41:40.127Z,99905.28
2023-04-18T16:43:43.088Z,99902.25
2023-04-18T16:45:47.466Z,99904.38
2023-04-18T16:47:50.359Z,99910.28
2023-04-18T16:49:53.705Z,99906.41
2023-04-18T16:51:56.644Z,99903.84
2023-04-18T16:53:59.831Z,99908.06
2023-04-18T16:56:03.621Z,99903.34
2023-04-18T16:58:06.604Z,99903.13
2023-04-18T17:00:10.695Z,99898.78
2023-04-18T17:02:15.257Z,99908.16
2023-04-18T17:04:18.382Z,99905.47
2023-04-18T17:06:22.967Z,99912.97
2023-04-18T17:08:28.919Z,99903.47
2023-04-18T17:10:32.180Z,99900.97
2023-04-18T17:12:35.062Z,99907.94
2023-04-18T17:14:38.184Z,99906.03
2023-04-18T17:16:42.574Z,99908.28
2023-04-18T17:18:47.048Z,99904.25
2023-04-18T17:20:50.081Z,99906.47
2023-04-18T17:22:53.035Z,99909.06
2023-04-18T17:24:55.947Z,99909.47
2023-04-18T17:26:58.952Z,99910.84
2023-04-18T17:29:03.614Z,99906.47
2023-04-18T17:31:07.035Z,99908.34
2023-04-18T17:33:10.761Z,99908.81
2023-04-18T17:35:15.283Z,99914.44
2023-04-18T17:37:18.151Z,99909.41
2023-04-18T17:39:21.149Z,99916.03
2023-04-18T17:41:24.311Z,99919.03
2023-04-18T17:43:27.410Z,99925.28
2023-04-18T17:45:30.329Z,99926.09
2023-04-18T17:47:33.941Z,99914.97
2023-04-18T17:49:36.799Z,99915.19
2023-04-18T17:51:41.166Z,99924.09
2023-04-18T17:53:44.312Z,99924.78
2023-04-18T17:55:49.150Z,99922.34
2023-04-18T17:57:52.011Z,99931.63
2023-04-18T17:59:55.019Z,99931.56
2023-04-18T18:01:58.945Z,99935.13
2023-04-18T18:04:02.202Z,99925.94
2023-04-18T18:06:05.068Z,99934.19
2023-04-18T18:08:09.850Z,99930.25
2023-04-18T18:10:12.729Z,99934.88
2023-04-18T18:12:15.700Z,99939.69
2023-04-18T18:14:18.651Z,99941.03
2023-04-18T18:16:22.068Z,99938.41
2023-04-18T18:18:25.444Z,99938.47
2023-04-18T18:20:28.693Z,99938.66
2023-04-18T18:22:31.961Z,99941.41
2023-04-18T18:24:36.333Z,99935.50
2023-04-18T18:26:39.193Z,99933.78
2023-04-18T18:28:42.053Z,99937.69
2023-04-18T18:30:45.083Z,99939.53
2023-04-18T18:32:48.134Z,99945.06
2023-04-18T18:34:51.071Z,99931.81
2023-04-18T18:36:54.018Z,99927.84
2023-04-18T18:38:57.052Z,99947.19
2023-04-18T18:41:03.760Z,99934.81
2023-04-18T18:43:06.809Z,99940.59
2023-04-18T18:45:10.875Z,99943.53
2023-04-18T18:47:13.853Z,99945.09
2023-04-18T18:49:16.829Z,99941.19
2023-04-18T18:51:19.750Z,99944.31
2023-04-18T18:53:22.824Z,99937.81
2023-04-18T18:55:25.700Z,99937.81
2023-04-18T18:57:30.232Z,99934.84
2023-04-18T18:59:33.232Z,99938.78
2023-04-18T19:01:36.425Z,99938.41
2023-04-18T19:03:39.730Z,99935.88
2023-04-18T19:05:42.685Z,99929.50
2023-04-18T19:07:45.517Z,99923.50
2023-04-18T19:09:48.782Z,99927.69
2023-04-18T19:11:51.642Z,99937.03
2023-04-18T19:13:56.033Z,99928.44
2023-04-18T19:15:59.111Z,99931.50
2023-04-18T19:18:02.413Z,99924.44
2023-04-18T19:20:06.616Z,99922.97
2023-04-18T19:22:09.553Z,99926.94
2023-04-18T19:24:12.528Z,99935.47
2023-04-18T19:26:15.647Z,99924.63
2023-04-18T19:28:18.706Z,99921.56
2023-04-18T19:30:23.474Z,99925.88
2023-04-18T19:32:27.115Z,99916.00
2023-04-18T19:34:30.121Z,99914.97
2023-04-18T19:36:32.960Z,99919.06
2023-04-18T19:38:36.261Z,99905.28
2023-04-18T19:40:39.215Z,99908.66
2023-04-18T19:42:42.104Z,99913.28
2023-04-18T19:44:44.962Z,99923.38
2023-04-18T19:46:49.655Z,99919.56
2023-04-18T19:48:52.657Z,99914.78
2023-04-18T19:50:57.361Z,99918.09
2023-04-18T19:53:00.179Z,99913.97
2023-04-18T19:55:03.262Z,99915.84
2023-04-18T19:57:06.678Z,99909.91
2023-04-18T19:59:09.541Z,99914.91
2023-04-18T20:01:12.919Z,99911.41
2023-04-18T20:03:17.636Z,99915.53
2023-04-18T20:05:20.916Z,99903.97
2023-04-18T20:07:26.268Z,99913.66
2023-04-18T20:09:29.411Z,99904.75
2023-04-18T20:11:32.657Z,99902.50
2023-04-18T20:13:37.042Z,99909.53
2023-04-18T20:15:40.691Z,99906.56
2023-04-18T20:17:43.584Z,99907.53
2023-04-18T20:19:49.958Z,99892.41
2023-04-18T20:21:52.947Z,99897.38
2023-04-18T20:23:56.887Z,99887.78
2023-04-18T20:25:59.921Z,99896.91
2023-04-18T20:28:03.353Z,99897.38
2023-04-18T20:30:07.465Z,99901.09
2023-04-18T20:32:12.100Z,99882.91
2023-04-18T20:34:15.020Z,99893.59
2023-04-18T20:36:20.076Z,99895.38
2023-04-18T20:38:26.361Z,99889.09
2023-04-18T20:40:29.612Z,99890.53
2023-04-18T20:42:32.626Z,99892.03
2023-04-18T20:44:36.363Z,99888.72
2023-04-18T20:46:39.350Z,99890.59
2023-04-18T20:48:44.210Z,99887.28
2023-04-18T20:50:51.693Z,99886.50
2023-04-18T20:52:56.355Z,99894.34
2023-04-18T20:54:59.539Z,99886.06
2023-04-18T20:57:02.949Z,99885.66
2023-04-18T20:59:06.070Z,99876.97
2023-04-18T21:01:09.030Z,99884.41
2023-04-18T21:03:14.170Z,99882.59
2023-04-18T21:05:17.271Z,99881.75
2023-04-18T21:07:20.099Z,99871.81
2023-04-18T21:09:24.673Z,99879.50
2023-04-18T21:11:27.500Z,99873.81
2023-04-18T21:13:31.599Z,99872.41
2023-04-18T21:15:35.288Z,99863.25
2023-04-18T21:17:38.204Z,99870.31
2023-04-18T21:19:41.140Z,99869.09
2023-04-18T21:21:44.119Z,99866.25
2023-04-18T21:23:47.010Z,99861.25
2023-04-18T21:25:51.391Z,99859.88
2023-04-18T21:27:54.404Z,99862.56
2023-04-18T21:29:57.458Z,99851.75
2023-04-18T21:32:00.425Z,99859.44
2023-04-18T21:34:04.623Z,99855.22
2023-04-18T21:36:07.827Z,99860.38
2023-04-18T21:38:10.801Z,99856.84
2023-04-18T21:40:14.788Z,99852.94
2023-04-18T21:42:19.410Z,99856.97
2023-04-18T21:44:22.232Z,99851.31
2023-04-18T21:46:26.439Z,99844.34
2023-04-18T21:48:29.449Z,99841.19
2023-04-18T21:50:32.439Z,99850.97
2023-04-18T21:52:35.532Z,99851.19
2023-04-18T21:54:40.141Z,99851.00
2023-04-18T21:56:43.421Z,99839.81
2023-04-18T21:58:48.062Z,99831.91
2023-04-18T22:00:51.062Z,99841.34
2023-04-18T22:02:54.098Z,99842.09
2023-04-18T22:04:57.046Z,99831.94
2023-04-18T22:07:00.282Z,99835.81
2023-04-18T22:09:03.193Z,99836.91
2023-04-18T22:11:06.269Z,99830.88
2023-04-18T22:13:09.360Z,99828.81
2023-04-18T22:15:13.985Z,99822.88
2023-04-18T22:17:16.865Z,99817.00
2023-04-18T22:19:20.657Z,99816.06
2023-04-18T22:21:23.555Z,99818.34
2023-04-18T22:23:27.087Z,99810.28
2023-04-18T22:25:30.458Z,99814.03
2023-04-18T22:27:33.469Z,99804.28
2023-04-18T22:29:36.550Z,99793.25
2023-04-18T22:31:41.010Z,99801.13
2023-04-18T22:33:43.890Z,99796.03
2023-04-18T22:35:47.335Z,99792.75
2023-04-18T22:37:50.297Z,99782.50
2023-04-18T22:39:53.183Z,99785.63
2023-04-18T22:41:55.991Z,99793.50
2023-04-18T22:43:58.872Z,99786.25
2023-04-18T22:46:03.183Z,99786.84
2023-04-18T22:48:11.723Z,99773.81
2023-04-18T22:50:15.056Z,99770.31
2023-04-18T22:52:18.071Z,99770.53
2023-04-18T22:54:21.295Z,99769.13
2023-04-18T22:56:24.341Z,99770.31
2023-04-18T22:58:27.250Z,99759.22
2023-04-18T23:00:30.260Z,99760.63
2023-04-18T23:02:33.416Z,99757.13
2023-04-18T23:04:38.087Z,99755.31
2023-04-18T23:06:41.218Z,99747.84
2023-04-18T23:08:44.093Z,99750.16
2023-04-18T23:10:47.031Z,99747.19
2023-04-18T23:12:49.945Z,99742.25
2023-04-18T23:14:52.836Z,99751.75
2023-04-18T23:16:55.977Z,99743.09
2023-04-18T23:18:58.816Z,99742.03
2023-04-18T23:21:03.240Z,99734.63
2023-04-18T23:23:06.267Z,99736.09
2023-04-18T23:25:09.486Z,99734.06
2023-04-18T23:27:12.517Z,99731.34
2023-04-18T23:29:15.516Z,99729.06
2023-04-18T23:31:18.554Z,99731.78
2023-04-18T23:33:21.482Z,99730.91
2023-04-18T23:35:24.785Z,99718.16
2023-04-18T23:37:29.206Z,99715.88
2023-04-18T23:39:32.028Z,99712.53
2023-04-18T23:41:35.170Z,99711.78
2023-04-18T23:43:37.994Z,99716.47
2023-04-18T23:45:41.080Z,99709.91
2023-04-18T23:47:44.077Z,99704.31
2023-04-18T23:49:47.023Z,99704.84
2023-04-18T23:51:49.876Z,99700.72
2023-04-18T23:53:54.487Z,99703.16
2023-04-18T23:55:57.301Z,99696.50
2023-04-18T23:58:00.187Z,99691.34
